Nearby METAR Reports

KLNK - Lincoln, Nebraska, USA
Distance from station: WNW 8mi, 13km
Updated: Thu, 19-Sep-2019 1:54am CDT
Partly Cloudy
Partly Cloudy
 Wind from SSE
Wind: SSE 6 mph , 9 km/h
Temperature: 75°F , 24°C
Dew Point: 68°F , 20°C
Humidity: 78%
Barometer: 29.94 inHg , 1013.9 hPa
Clouds: Partly Cloudy
Visibility: 10 miles , 16 km
Cloud details: Partly Cloudy 8000 ft
2019/09/19 06:54 KLNK 190654Z AUTO 16005KT 10SM SCT080 24/20 A2994 RMK AO2 SLP125 T02390200
KAHQ - Wahoo, Nebraska, USA
Distance from station: N 31mi, 49km
Updated: Thu, 19-Sep-2019 1:55am CDT
Mostly Cloudy
Mostly Cloudy
 Wind from N
Wind: N 5 mph , 7 km/h
Temperature: 73°F , 23°C
Dew Point: 72°F , 22°C
Humidity: 94%
Barometer: 29.95 inHg , 1014.2 hPa
Clouds: Mostly Cloudy
Visibility: 10 miles , 16 km
Cloud details: Mostly Cloudy 7000 ft
Partly Cloudy 8000 ft
Mostly Cloudy 11000 ft
2019/09/19 06:55 KAHQ 190655Z AUTO 01004KT 10SM BKN070 SCT080 BKN110 23/22 A2995 RMK AO2 T02250215
 
KBIE - Beatrice Municip, Nebraska, USA
Distance from station: S 36mi, 57km
Updated: Thu, 19-Sep-2019 1:55am CDT
Clear
Clear
 Wind from SSE
Wind: SSE 5 mph , 7 km/h
Temperature: 77°F , 25°C
Dew Point: 70°F , 21°C
Humidity: 79%
Barometer: 29.95 inHg , 1014.2 hPa
Clouds: Clear
Visibility: 10 miles , 16 km
2019/09/19 06:55 KBIE 190655Z AUTO 15004KT 10SM CLR 25/21 A2995 RMK AO2 T02490205
KMLE - Omaha/Millard, Nebraska, USA
Distance from station: NE 39mi, 63km
Updated: Thu, 19-Sep-2019 1:55am CDT
Partly Cloudy
Partly Cloudy
 Wind from calm
Wind: Calm
Temperature: 77°F , 25°C
Dew Point: 70°F , 21°C
Humidity: 79%
Barometer: 29.94 inHg , 1013.9 hPa
Clouds: Partly Cloudy
Visibility: 10 miles , 16 km
Cloud details: Partly Cloudy 8500 ft
2019/09/19 06:55 KMLE 190655Z AUTO 00000KT 10SM SCT085 25/21 A2994 RMK AO2 LTG DSNT N AND NW T02530212
 
KPMV - Plattsmouth Muni, Nebraska, USA
Distance from station: ENE 39mi, 63km
Updated: Thu, 19-Sep-2019 1:55am CDT
Partly Cloudy
Partly Cloudy
 Wind from S
Wind: S 9 mph , 15 km/h
Temperature: 77°F , 25°C
Dew Point: 72°F , 22°C
Humidity: 83%
Barometer: 29.94 inHg , 1013.9 hPa
Clouds: Partly Cloudy
Visibility: 10 miles , 16 km
Cloud details: Partly Cloudy 10000 ft
2019/09/19 06:55 KPMV 190655Z AUTO 17008KT 10SM SCT100 25/22 A2994 RMK AO2 T02450215
KAFK - Nebraska City, Nebraska, USA
Distance from station: ESE 43mi, 69km
Updated: Thu, 19-Sep-2019 1:55am CDT
Mostly Cloudy
Mostly Cloudy
 Wind from SSW
Wind: SSW 7 mph , 11 km/h
Temperature: 75°F , 24°C
Dew Point: 72°F , 22°C
Humidity: 89%
Barometer: 29.96 inHg , 1014.6 hPa
Clouds: Mostly Cloudy
Visibility: 10 miles , 16 km
Cloud details: Mostly Cloudy 10000 ft
2019/09/19 06:55 KAFK 190655Z AUTO 20006KT 10SM BKN100 24/22 A2996 RMK AO2 T02380221
 
KOFF - Offutt Afb/Belle, Nebraska, USA
Distance from station: ENE 44mi, 70km
Updated: Thu, 19-Sep-2019 1:56am CDT
Mostly Cloudy
Mostly Cloudy
 Wind from SSE
Wind: SSE 7 mph , 11 km/h
Temperature: 79°F , 26°C
Dew Point: 70°F , 21°C
Humidity: 74%
Barometer: 29.97 inHg , 1014.9 hPa
Clouds: Mostly Cloudy
Visibility: 10 miles , 16 km
Cloud details: Partly Cloudy 5000 ft
Mostly Cloudy 15000 ft
Mostly Cloudy 25000 ft
2019/09/19 06:56 KOFF 190656Z 16006KT 10SM SCT050 BKN150 BKN250 26/21 A2997 RMK AO2A SLP130 RVRNO $
KFET - Fremont Muni Arp, Nebraska, USA
Distance from station: N 46mi, 74km
Updated: Thu, 19-Sep-2019 1:55am CDT
Light thunderstorm, Rain, Overcast
Light thunderstorm, Rain, Overcast
 Wind from NE
Wind: NE 7 mph , 11 km/h
Temperature: 75°F , 24°C
Dew Point: 70°F , 21°C
Humidity: 83%
Barometer: 29.97 inHg , 1014.9 hPa
Summary: Light thunderstorm, Rain
Clouds: Overcast
Visibility: 10 miles , 16 km
Cloud details: Overcast 6500 ft
2019/09/19 06:55 KFET 190655Z AUTO 04006KT 10SM -TSRA OVC065 24/21 A2997 RMK AO2 LTG DSNT ALQS T02410206
 
KBTA - Blair Muni, Nebraska, USA
Distance from station: NNE 51mi, 82km
Updated: Thu, 19-Sep-2019 1:55am CDT
Overcast
Overcast
 Wind from N
Wind: N 10 mph , 17 km/h
Temperature: 75°F , 24°C
Dew Point: 70°F , 21°C
Humidity: 83%
Barometer: 29.96 inHg , 1014.6 hPa
Clouds: Overcast
Visibility: 10 miles , 16 km
Cloud details: Mostly Cloudy 6000 ft
Overcast 10000 ft
2019/09/19 06:55 KBTA 190655Z AUTO 01009KT 10SM BKN060 OVC100 24/21 A2996 RMK AO2 LTG DSNT W THRU NE T02350206
KJYR - York, Nebraska, USA
Distance from station: W 52mi, 84km
Updated: Thu, 19-Sep-2019 1:55am CDT
Overcast
Overcast
 Wind from SSE
Wind: SSE 5 mph , 7 km/h
Temperature: 72°F , 22°C
Dew Point: 68°F , 20°C
Humidity: 88%
Barometer: 29.95 inHg , 1014.2 hPa
Clouds: Overcast
Visibility: 10 miles , 16 km
Cloud details: Overcast 8000 ft
2019/09/19 06:55 KJYR 190655Z AUTO 16004KT 10SM OVC080 22/20 A2995 RMK AO2
 
KOMA - Omaha/Eppley, Nebraska, USA
Distance from station: NE 53mi, 85km
Updated: Thu, 19-Sep-2019 1:52am CDT
Overcast
Overcast
 Wind from SE
Wind: SE 6 mph , 9 km/h
Temperature: 79°F , 26°C
Dew Point: 70°F , 21°C
Humidity: 74%
Barometer: 29.94 inHg , 1013.9 hPa
Clouds: Overcast
Visibility: 10 miles , 16 km
Cloud details: Overcast 8500 ft
2019/09/19 06:52 KOMA 190652Z 14005KT 10SM OVC085 26/21 A2994 RMK AO2 SLP128 CONS LTGIC DSNT W-N CB DSNT W-N MOV NE T02560211
KOLU - Columbus Muni, Nebraska, USA
Distance from station: NW 58mi, 93km
Updated: Thu, 19-Sep-2019 1:56am CDT
Overcast
Overcast
 Wind from ENE
Wind: ENE 8 mph , 13 km/h
Temperature: 72°F , 22°C
Dew Point: 68°F , 20°C
Humidity: 88%
Barometer: 29.96 inHg , 1014.6 hPa
Clouds: Overcast
Visibility: 10 miles , 16 km
Cloud details: Overcast 7000 ft
2019/09/19 06:56 KOLU 190656Z AUTO 06007KT 10SM OVC070 22/20 A2996 RMK AO2 LTG DSNT E SLP136 T02220200